createdAt,value
2018-12-11T00:00:01.778Z,1014.62
2018-12-11T00:00:27.883Z,1014.65
2018-12-11T00:00:54.029Z,1014.66
2018-12-11T00:01:20.162Z,1014.66
2018-12-11T00:01:46.265Z,1014.69
2018-12-11T00:02:12.542Z,1014.68
2018-12-11T00:02:38.648Z,1014.64
2018-12-11T00:03:04.801Z,1014.64
2018-12-11T00:03:31.117Z,1014.62
2018-12-11T00:03:57.229Z,1014.64
2018-12-11T00:04:23.363Z,1014.6
2018-12-11T00:04:49.493Z,1014.58
2018-12-11T00:05:15.590Z,1014.64
2018-12-11T00:05:41.698Z,1014.64
2018-12-11T00:06:07.801Z,1014.62
2018-12-11T00:06:33.919Z,1014.69
2018-12-11T00:07:00.033Z,1014.61
2018-12-11T00:07:26.130Z,1014.68
2018-12-11T00:07:52.240Z,1014.65
2018-12-11T00:08:18.348Z,1014.66
2018-12-11T00:08:44.455Z,1014.69
2018-12-11T00:09:10.622Z,1014.73
2018-12-11T00:09:36.717Z,1014.68
2018-12-11T00:10:02.859Z,1014.69
2018-12-11T00:10:28.956Z,1014.69
2018-12-11T00:10:55.066Z,1014.73
2018-12-11T00:11:21.208Z,1014.76
2018-12-11T00:11:48.283Z,1014.77
2018-12-11T00:12:14.417Z,1014.75
2018-12-11T00:12:40.549Z,1014.73
2018-12-11T00:13:06.667Z,1014.75
2018-12-11T00:13:32.782Z,1014.77
2018-12-11T00:13:58.879Z,1014.75
2018-12-11T00:14:24.992Z,1014.74
2018-12-11T00:14:51.089Z,1014.75
2018-12-11T00:15:17.196Z,1014.79
2018-12-11T00:15:43.350Z,1014.77
2018-12-11T00:16:09.504Z,1014.8
2018-12-11T00:16:35.603Z,1014.86
2018-12-11T00:17:01.714Z,1014.89
2018-12-11T00:17:27.814Z,1014.89
2018-12-11T00:17:53.927Z,1014.94
2018-12-11T00:18:20.063Z,1014.9
2018-12-11T00:18:46.175Z,1014.91
2018-12-11T00:19:12.287Z,1014.9
2018-12-11T00:19:38.407Z,1014.88
2018-12-11T00:20:04.496Z,1014.9
2018-12-11T00:20:30.610Z,1014.82
2018-12-11T00:20:56.748Z,1014.79
2018-12-11T00:21:22.855Z,1014.82
2018-12-11T00:21:48.974Z,1014.81
2018-12-11T00:22:15.078Z,1014.76
2018-12-11T00:22:41.202Z,1014.8
2018-12-11T00:23:07.295Z,1014.71
2018-12-11T00:23:33.411Z,1014.75
2018-12-11T00:23:59.523Z,1014.81
2018-12-11T00:24:25.648Z,1014.79
2018-12-11T00:24:51.824Z,1014.8
2018-12-11T00:25:17.892Z,1014.83
2018-12-11T00:25:44.018Z,1014.78
2018-12-11T00:26:10.129Z,1014.76
2018-12-11T00:26:36.232Z,1014.79
2018-12-11T00:27:02.387Z,1014.75
2018-12-11T00:27:28.527Z,1014.8
2018-12-11T00:27:54.637Z,1014.76
2018-12-11T00:28:20.765Z,1014.74
2018-12-11T00:28:46.899Z,1014.72
2018-12-11T00:29:13.026Z,1014.76
2018-12-11T00:29:39.135Z,1014.73
2018-12-11T00:30:05.241Z,1014.79
2018-12-11T00:30:31.376Z,1014.76
2018-12-11T00:30:57.486Z,1014.76
2018-12-11T00:31:23.644Z,1014.74
2018-12-11T00:31:49.747Z,1014.78
2018-12-11T00:32:15.860Z,1014.72
2018-12-11T00:32:41.999Z,1014.72
2018-12-11T00:33:08.120Z,1014.73
2018-12-11T00:33:34.254Z,1014.74
2018-12-11T00:34:00.362Z,1014.73
2018-12-11T00:34:26.502Z,1014.73
2018-12-11T00:34:52.623Z,1014.73
2018-12-11T00:35:18.722Z,1014.71
2018-12-11T00:35:44.841Z,1014.74
2018-12-11T00:36:10.946Z,1014.71
2018-12-11T00:36:37.073Z,1014.7
2018-12-11T00:37:03.201Z,1014.68
2018-12-11T00:37:29.303Z,1014.66
2018-12-11T00:37:55.413Z,1014.66
2018-12-11T00:38:21.540Z,1014.67
2018-12-11T00:38:47.661Z,1014.62
2018-12-11T00:39:13.763Z,1014.65
2018-12-11T00:39:39.877Z,1014.65
2018-12-11T00:40:05.971Z,1014.64
2018-12-11T00:40:32.087Z,1014.66
2018-12-11T00:40:58.196Z,1014.6
2018-12-11T00:41:24.305Z,1014.69
2018-12-11T00:41:50.411Z,1014.69
2018-12-11T00:42:16.520Z,1014.67
2018-12-11T00:42:42.645Z,1014.69
2018-12-11T00:43:08.754Z,1014.63
2018-12-11T00:43:34.892Z,1014.62
2018-12-11T00:44:00.999Z,1014.62
2018-12-11T00:44:27.105Z,1014.55
2018-12-11T00:44:53.220Z,1014.58
2018-12-11T00:45:19.328Z,1014.52
2018-12-11T00:45:45.436Z,1014.56
2018-12-11T00:46:11.550Z,1014.59
2018-12-11T00:46:37.658Z,1014.62
2018-12-11T00:47:03.779Z,1014.61
2018-12-11T00:47:29.894Z,1014.63
2018-12-11T00:47:56.030Z,1014.64
2018-12-11T00:48:22.153Z,1014.68
2018-12-11T00:48:48.281Z,1014.68
2018-12-11T00:49:14.408Z,1014.65
2018-12-11T00:49:40.521Z,1014.63
2018-12-11T00:50:06.705Z,1014.66
2018-12-11T00:50:32.824Z,1014.63
2018-12-11T00:50:58.945Z,1014.64
2018-12-11T00:51:25.045Z,1014.6
2018-12-11T00:51:51.148Z,1014.54
2018-12-11T00:52:17.279Z,1014.56
2018-12-11T00:52:43.377Z,1014.59
2018-12-11T00:53:09.496Z,1014.59
2018-12-11T00:53:35.603Z,1014.62
2018-12-11T00:54:01.730Z,1014.62
2018-12-11T00:54:27.835Z,1014.55
2018-12-11T00:54:53.941Z,1014.6
2018-12-11T00:55:20.046Z,1014.6
2018-12-11T00:55:46.172Z,1014.6
2018-12-11T00:56:12.272Z,1014.58
2018-12-11T00:56:38.413Z,1014.68
2018-12-11T00:57:04.519Z,1014.68
2018-12-11T00:57:30.619Z,1014.68
2018-12-11T00:57:56.750Z,1014.7
2018-12-11T00:58:22.869Z,1014.69
2018-12-11T00:58:48.989Z,1014.65
2018-12-11T00:59:15.115Z,1014.61
2018-12-11T00:59:41.233Z,1014.61
2018-12-11T01:00:07.333Z,1014.6
2018-12-11T01:00:33.438Z,1014.6
2018-12-11T01:00:59.555Z,1014.68
2018-12-11T01:01:25.660Z,1014.65
2018-12-11T01:01:51.764Z,1014.68
2018-12-11T01:02:17.901Z,1014.64
2018-12-11T01:02:44.024Z,1014.65
2018-12-11T01:03:10.129Z,1014.69
2018-12-11T01:03:36.234Z,1014.7
2018-12-11T01:04:02.351Z,1014.69
2018-12-11T01:04:28.458Z,1014.7
2018-12-11T01:04:54.563Z,1014.72
2018-12-11T01:05:20.695Z,1014.74
2018-12-11T01:05:46.810Z,1014.77
2018-12-11T01:06:12.915Z,1014.72
2018-12-11T01:06:39.027Z,1014.7
2018-12-11T01:07:05.153Z,1014.73
2018-12-11T01:07:31.281Z,1014.76
2018-12-11T01:07:57.367Z,1014.77
2018-12-11T01:08:23.503Z,1014.74
2018-12-11T01:08:49.615Z,1014.75
2018-12-11T01:09:15.719Z,1014.71
2018-12-11T01:09:41.830Z,1014.75
2018-12-11T01:10:07.975Z,1014.75
2018-12-11T01:10:34.133Z,1014.71
2018-12-11T01:11:00.256Z,1014.75
2018-12-11T01:11:26.374Z,1014.7
2018-12-11T01:11:52.489Z,1014.64
2018-12-11T01:12:18.600Z,1014.7
2018-12-11T01:12:44.740Z,1014.61
2018-12-11T01:13:10.882Z,1014.7
2018-12-11T01:13:36.987Z,1014.69
2018-12-11T01:14:03.089Z,1014.73
2018-12-11T01:14:29.202Z,1014.73
2018-12-11T01:14:55.308Z,1014.73
2018-12-11T01:15:21.443Z,1014.75
2018-12-11T01:15:47.549Z,1014.73
2018-12-11T01:16:13.661Z,1014.77
2018-12-11T01:16:39.779Z,1014.79
2018-12-11T01:17:05.892Z,1014.76
2018-12-11T01:17:32.001Z,1014.81
2018-12-11T01:17:58.106Z,1014.81
2018-12-11T01:18:24.239Z,1014.79
2018-12-11T01:18:50.369Z,1014.83
2018-12-11T01:19:16.465Z,1014.82
2018-12-11T01:19:42.573Z,1014.79
2018-12-11T01:20:08.676Z,1014.84
2018-12-11T01:20:34.784Z,1014.82
2018-12-11T01:21:00.895Z,1014.79
2018-12-11T01:21:27.008Z,1014.81
2018-12-11T01:21:53.120Z,1014.84
2018-12-11T01:22:19.233Z,1014.8
2018-12-11T01:22:45.358Z,1014.77
2018-12-11T01:23:11.513Z,1014.78
2018-12-11T01:23:37.618Z,1014.83
2018-12-11T01:24:03.733Z,1014.76
2018-12-11T01:24:29.839Z,1014.81
2018-12-11T01:24:55.945Z,1014.79
2018-12-11T01:25:22.094Z,1014.79
2018-12-11T01:25:48.258Z,1014.82
2018-12-11T01:26:14.363Z,1014.8
2018-12-11T01:26:40.513Z,1014.78
2018-12-11T01:27:06.664Z,1014.74
2018-12-11T01:27:32.804Z,1014.78
2018-12-11T01:27:58.928Z,1014.79
2018-12-11T01:28:25.061Z,1014.79
2018-12-11T01:28:51.200Z,1014.76
2018-12-11T01:29:17.312Z,1014.73
2018-12-11T01:29:43.429Z,1014.76
2018-12-11T01:30:09.592Z,1014.77
2018-12-11T01:30:35.699Z,1014.73
2018-12-11T01:31:01.854Z,1014.76
2018-12-11T01:31:27.988Z,1014.75
2018-12-11T01:31:54.117Z,1014.76
2018-12-11T01:32:20.223Z,1014.73
2018-12-11T01:32:46.326Z,1014.73
2018-12-11T01:33:12.471Z,1014.74
2018-12-11T01:33:38.597Z,1014.77
2018-12-11T01:34:04.702Z,1014.73
2018-12-11T01:34:30.812Z,1014.74
2018-12-11T01:34:56.918Z,1014.76
2018-12-11T01:35:23.023Z,1014.78
2018-12-11T01:35:49.169Z,1014.76
2018-12-11T01:36:15.273Z,1014.79
2018-12-11T01:36:41.395Z,1014.79
2018-12-11T01:37:07.513Z,1014.81
2018-12-11T01:37:33.610Z,1014.83
2018-12-11T01:37:59.725Z,1014.84
2018-12-11T01:38:25.832Z,1014.79
2018-12-11T01:38:51.936Z,1014.83
2018-12-11T01:39:18.044Z,1014.83
2018-12-11T01:39:44.180Z,1014.89
2018-12-11T01:40:10.292Z,1014.85
2018-12-11T01:40:36.403Z,1014.91
2018-12-11T01:41:02.502Z,1014.91
2018-12-11T01:41:28.621Z,1014.86
2018-12-11T01:41:54.722Z,1014.85
2018-12-11T01:42:20.832Z,1014.86
2018-12-11T01:42:46.949Z,1014.73
2018-12-11T01:43:13.072Z,1014.78
2018-12-11T01:43:39.232Z,1014.75
2018-12-11T01:44:05.339Z,1014.76
2018-12-11T01:44:31.452Z,1014.8
2018-12-11T01:44:57.576Z,1014.71
2018-12-11T01:45:23.680Z,1014.78
2018-12-11T01:45:49.805Z,1014.73
2018-12-11T01:46:15.910Z,1014.78
2018-12-11T01:46:42.027Z,1014.81
2018-12-11T01:47:08.132Z,1014.85
2018-12-11T01:47:34.265Z,1014.84
2018-12-11T01:48:00.367Z,1014.83
2018-12-11T01:48:26.484Z,1014.82
2018-12-11T01:48:52.594Z,1014.85
2018-12-11T01:49:18.718Z,1014.9
2018-12-11T01:49:44.833Z,1014.88
2018-12-11T01:50:10.954Z,1014.84
2018-12-11T01:50:37.060Z,1014.83
2018-12-11T01:51:03.186Z,1014.86
2018-12-11T01:51:29.285Z,1014.83
2018-12-11T01:51:55.410Z,1014.84
2018-12-11T01:52:21.572Z,1014.77
2018-12-11T01:52:47.688Z,1014.83
2018-12-11T01:53:13.827Z,1014.82
2018-12-11T01:53:39.951Z,1014.76
2018-12-11T01:54:06.067Z,1014.73
2018-12-11T01:54:32.603Z,1014.8
2018-12-11T01:54:58.704Z,1014.75
2018-12-11T01:55:24.858Z,1014.82
2018-12-11T01:55:50.959Z,1014.8
2018-12-11T01:56:17.078Z,1014.75
2018-12-11T01:56:43.205Z,1014.75
2018-12-11T01:57:09.306Z,1014.75
2018-12-11T01:57:35.408Z,1014.68
2018-12-11T01:58:01.550Z,1014.74
2018-12-11T01:58:27.654Z,1014.7
2018-12-11T01:58:53.770Z,1014.73
2018-12-11T01:59:19.945Z,1014.69
2018-12-11T01:59:46.086Z,1014.72
2018-12-11T02:00:12.201Z,1014.7
2018-12-11T02:00:38.316Z,1014.69
2018-12-11T02:01:04.424Z,1014.65
2018-12-11T02:01:30.528Z,1014.67
2018-12-11T02:01:56.627Z,1014.68
2018-12-11T02:02:22.736Z,1014.77
2018-12-11T02:02:48.857Z,1014.72
2018-12-11T02:03:14.959Z,1014.75
2018-12-11T02:03:42.733Z,1014.72
2018-12-11T02:04:10.103Z,1014.73
2018-12-11T02:04:38.247Z,1014.8
2018-12-11T02:05:05.331Z,1014.79
2018-12-11T02:05:33.415Z,1014.84
2018-12-11T02:06:00.177Z,1014.81
2018-12-11T02:06:26.316Z,1014.79
2018-12-11T02:06:52.428Z,1014.79
2018-12-11T02:07:18.540Z,1014.85
2018-12-11T02:07:44.682Z,1014.89
2018-12-11T02:08:10.804Z,1014.86
2018-12-11T02:08:36.907Z,1014.88
2018-12-11T02:09:03.010Z,1014.82
2018-12-11T02:09:29.150Z,1014.8
2018-12-11T02:09:55.279Z,1014.84
2018-12-11T02:10:21.376Z,1014.81
2018-12-11T02:10:47.481Z,1014.84
2018-12-11T02:11:13.586Z,1014.77
2018-12-11T02:11:39.692Z,1014.78
2018-12-11T02:12:05.804Z,1014.73
2018-12-11T02:12:31.911Z,1014.84
2018-12-11T02:12:58.019Z,1014.82
2018-12-11T02:13:24.154Z,1014.83
2018-12-11T02:13:50.276Z,1014.79
2018-12-11T02:14:16.371Z,1014.8
2018-12-11T02:14:42.541Z,1014.76
2018-12-11T02:15:08.644Z,1014.77
2018-12-11T02:15:34.741Z,1014.73
2018-12-11T02:16:00.911Z,1014.8
2018-12-11T02:16:27.043Z,1014.83
2018-12-11T02:16:53.184Z,1014.75
2018-12-11T02:17:19.290Z,1014.78
2018-12-11T02:17:45.421Z,1014.8
2018-12-11T02:18:11.555Z,1014.8
2018-12-11T02:18:37.663Z,1014.84
2018-12-11T02:19:03.825Z,1014.78
2018-12-11T02:19:29.947Z,1014.84
2018-12-11T02:19:56.055Z,1014.87
2018-12-11T02:20:22.186Z,1014.86
2018-12-11T02:20:48.312Z,1014.83
2018-12-11T02:21:14.425Z,1014.84
2018-12-11T02:21:42.068Z,1014.8
2018-12-11T02:22:07.643Z,1014.81
2018-12-11T02:22:33.757Z,1014.84
2018-12-11T02:22:59.957Z,1014.82
2018-12-11T02:23:26.040Z,1014.86
2018-12-11T02:23:52.149Z,1014.86
2018-12-11T02:24:18.287Z,1014.82
2018-12-11T02:24:44.398Z,1014.88
2018-12-11T02:25:10.511Z,1014.9
2018-12-11T02:25:36.616Z,1014.86
2018-12-11T02:26:02.753Z,1014.9
2018-12-11T02:26:28.887Z,1014.93
2018-12-11T02:26:55.014Z,1014.9
2018-12-11T02:27:21.128Z,1014.92
2018-12-11T02:27:47.249Z,1014.91
2018-12-11T02:28:13.385Z,1014.9
2018-12-11T02:28:39.495Z,1014.94
2018-12-11T02:29:05.613Z,1014.89
2018-12-11T02:29:31.749Z,1014.9
2018-12-11T02:29:57.889Z,1014.89
2018-12-11T02:30:24.044Z,1014.9
2018-12-11T02:30:50.217Z,1014.91
2018-12-11T02:31:16.351Z,1014.9
2018-12-11T02:31:42.461Z,1014.86
2018-12-11T02:32:08.574Z,1014.88
2018-12-11T02:32:34.691Z,1014.83
2018-12-11T02:33:00.844Z,1014.87
2018-12-11T02:33:26.951Z,1014.89
2018-12-11T02:33:53.104Z,1014.83
2018-12-11T02:34:19.215Z,1014.83
2018-12-11T02:34:45.342Z,1014.86
2018-12-11T02:35:11.445Z,1014.9
2018-12-11T02:35:37.553Z,1014.89
2018-12-11T02:36:03.699Z,1014.88
2018-12-11T02:36:29.873Z,1014.87
2018-12-11T02:36:55.968Z,1014.92
2018-12-11T02:37:22.084Z,1014.91
2018-12-11T02:37:48.184Z,1014.91
2018-12-11T02:38:14.350Z,1014.92
2018-12-11T02:38:40.459Z,1014.96
2018-12-11T02:39:06.568Z,1014.92
2018-12-11T02:39:32.777Z,1014.9
2018-12-11T02:39:58.850Z,1014.95
2018-12-11T02:40:24.964Z,1014.92
2018-12-11T02:40:51.070Z,1014.94
2018-12-11T02:41:17.193Z,1014.91
2018-12-11T02:41:43.380Z,1014.95
2018-12-11T02:42:09.524Z,1014.95
2018-12-11T02:42:35.636Z,1014.95
2018-12-11T02:43:01.769Z,1014.91
2018-12-11T02:43:27.913Z,1014.98
2018-12-11T02:43:54.036Z,1014.96
2018-12-11T02:44:20.149Z,1014.95
2018-12-11T02:44:46.304Z,1014.96
2018-12-11T02:45:12.427Z,1014.95
2018-12-11T02:45:38.531Z,1014.93
2018-12-11T02:46:04.695Z,1014.94
2018-12-11T02:46:30.839Z,1014.97
2018-12-11T02:46:56.967Z,1014.94
2018-12-11T02:47:23.122Z,1014.96
2018-12-11T02:47:49.267Z,1014.98
2018-12-11T02:48:15.386Z,1014.93
2018-12-11T02:48:41.514Z,1014.92
2018-12-11T02:49:07.669Z,1014.9
2018-12-11T02:49:33.802Z,1014.92
2018-12-11T02:49:59.923Z,1014.92
2018-12-11T02:50:26.026Z,1014.91
2018-12-11T02:50:52.143Z,1014.9
2018-12-11T02:51:18.271Z,1014.91
2018-12-11T02:51:44.372Z,1014.91
2018-12-11T02:52:10.477Z,1014.91
2018-12-11T02:52:36.610Z,1014.9
2018-12-11T02:53:02.720Z,1014.96
2018-12-11T02:53:28.870Z,1014.97
2018-12-11T02:53:54.999Z,1014.94
2018-12-11T02:54:21.145Z,1014.98
2018-12-11T02:54:47.308Z,1014.97
2018-12-11T02:55:13.412Z,1014.93
2018-12-11T02:55:39.525Z,1014.98
2018-12-11T02:56:05.645Z,1014.9
2018-12-11T02:56:31.787Z,1014.9
2018-12-11T02:56:57.927Z,1014.95
2018-12-11T02:57:24.052Z,1014.95
2018-12-11T02:57:50.177Z,1014.99
2018-12-11T02:58:16.327Z,1014.96
2018-12-11T02:58:42.432Z,1014.96
2018-12-11T02:59:08.581Z,1014.93
2018-12-11T02:59:34.721Z,1014.96
2018-12-11T03:00:00.866Z,1014.92
2018-12-11T03:00:27.056Z,1014.95
2018-12-11T03:00:53.119Z,1014.92
2018-12-11T03:01:19.215Z,1014.91
2018-12-11T03:01:45.328Z,1014.95
2018-12-11T03:02:11.435Z,1014.95
2018-12-11T03:02:37.570Z,1014.91
2018-12-11T03:03:03.781Z,1014.92
2018-12-11T03:03:29.871Z,1014.88
2018-12-11T03:03:56.000Z,1014.95
2018-12-11T03:04:22.175Z,1014.92
2018-12-11T03:04:48.280Z,1014.92
2018-12-11T03:05:14.413Z,1014.95
2018-12-11T03:05:40.529Z,1014.99
2018-12-11T03:06:06.671Z,1014.95
2018-12-11T03:06:32.847Z,1015
2018-12-11T03:06:58.975Z,1014.98
2018-12-11T03:07:25.160Z,1014.93
2018-12-11T03:07:51.245Z,1014.96
2018-12-11T03:08:17.387Z,1014.92
2018-12-11T03:08:43.481Z,1014.91
2018-12-11T03:09:09.641Z,1014.94
2018-12-11T03:09:35.749Z,1014.89
2018-12-11T03:10:01.857Z,1014.88
2018-12-11T03:10:27.957Z,1014.84
2018-12-11T03:10:54.065Z,1014.88
2018-12-11T03:11:20.167Z,1014.87
2018-12-11T03:11:46.269Z,1014.91
2018-12-11T03:12:12.395Z,1014.87
2018-12-11T03:12:38.501Z,1014.85
2018-12-11T03:13:04.605Z,1014.83
2018-12-11T03:13:30.740Z,1014.87
2018-12-11T03:13:56.842Z,1014.87
2018-12-11T03:14:22.973Z,1014.89
2018-12-11T03:14:49.080Z,1014.86
2018-12-11T03:15:15.191Z,1014.83
2018-12-11T03:15:41.319Z,1014.88
2018-12-11T03:16:07.460Z,1014.86
2018-12-11T03:16:33.561Z,1014.88
2018-12-11T03:16:59.697Z,1014.95
2018-12-11T03:17:25.808Z,1014.94
2018-12-11T03:17:51.968Z,1014.89
2018-12-11T03:18:18.078Z,1014.89
2018-12-11T03:18:44.181Z,1014.84
2018-12-11T03:19:10.314Z,1014.83
2018-12-11T03:19:36.454Z,1014.82
2018-12-11T03:20:02.607Z,1014.79
2018-12-11T03:20:28.742Z,1014.83
2018-12-11T03:20:54.870Z,1014.84
2018-12-11T03:21:20.968Z,1014.82
2018-12-11T03:21:47.069Z,1014.88
2018-12-11T03:22:13.179Z,1014.9
2018-12-11T03:22:39.325Z,1014.9
2018-12-11T03:23:05.453Z,1014.87
2018-12-11T03:23:31.565Z,1014.89
2018-12-11T03:23:57.728Z,1014.83
2018-12-11T03:24:23.889Z,1014.81
2018-12-11T03:24:50.041Z,1014.81
2018-12-11T03:25:16.180Z,1014.82
2018-12-11T03:25:42.309Z,1014.88
2018-12-11T03:26:08.444Z,1014.89
2018-12-11T03:26:34.552Z,1014.86
2018-12-11T03:27:00.726Z,1014.93
2018-12-11T03:27:26.830Z,1014.92
2018-12-11T03:27:52.972Z,1014.93
2018-12-11T03:28:19.090Z,1014.92
2018-12-11T03:28:45.310Z,1014.94
2018-12-11T03:29:11.361Z,1014.89
2018-12-11T03:29:37.481Z,1014.95
2018-12-11T03:30:03.591Z,1014.88
2018-12-11T03:30:29.766Z,1014.87
2018-12-11T03:30:55.966Z,1014.88
2018-12-11T03:31:22.165Z,1014.93
2018-12-11T03:31:48.278Z,1014.91
2018-12-11T03:32:14.542Z,1014.89
2018-12-11T03:32:40.741Z,1014.87
2018-12-11T03:33:06.907Z,1014.87
2018-12-11T03:33:33.071Z,1014.91
2018-12-11T03:33:59.188Z,1014.94
2018-12-11T03:34:25.321Z,1014.92
2018-12-11T03:34:51.432Z,1014.93
2018-12-11T03:35:17.531Z,1014.93
2018-12-11T03:35:43.636Z,1014.95
2018-12-11T03:36:09.772Z,1014.92
2018-12-11T03:36:35.923Z,1014.97
2018-12-11T03:37:01.974Z,1014.95
2018-12-11T03:37:28.126Z,1014.98
2018-12-11T03:37:54.217Z,1014.96
2018-12-11T03:38:20.337Z,1014.95
2018-12-11T03:38:46.443Z,1014.98
2018-12-11T03:39:12.551Z,1014.99
2018-12-11T03:39:38.675Z,1014.98
2018-12-11T03:40:04.842Z,1014.95
2018-12-11T03:40:30.953Z,1015.02
2018-12-11T03:40:57.071Z,1014.97
2018-12-11T03:41:23.199Z,1014.95
2018-12-11T03:41:49.308Z,1014.95
2018-12-11T03:42:15.421Z,1014.94
2018-12-11T03:42:41.557Z,1014.95
2018-12-11T03:43:07.661Z,1014.93
2018-12-11T03:43:33.779Z,1014.92
2018-12-11T03:43:59.891Z,1014.95
2018-12-11T03:44:26.035Z,1014.88
2018-12-11T03:44:52.139Z,1014.95
2018-12-11T03:45:18.279Z,1014.94
2018-12-11T03:45:44.419Z,1014.95
2018-12-11T03:46:10.526Z,1014.99
2018-12-11T03:46:36.721Z,1014.99
2018-12-11T03:47:02.771Z,1014.95
2018-12-11T03:47:28.873Z,1014.96
2018-12-11T03:47:55.038Z,1014.94
2018-12-11T03:48:21.147Z,1014.92
2018-12-11T03:48:47.260Z,1014.98
2018-12-11T03:49:13.379Z,1014.95
2018-12-11T03:49:39.479Z,1014.98
2018-12-11T03:50:05.595Z,1015
2018-12-11T03:50:31.765Z,1014.99
2018-12-11T03:50:57.891Z,1014.95
2018-12-11T03:51:24.041Z,1014.97
2018-12-11T03:51:50.211Z,1014.95
2018-12-11T03:52:21.279Z,1014.96
2018-12-11T03:52:43.522Z,1014.94
2018-12-11T03:53:09.619Z,1014.97
2018-12-11T03:53:35.783Z,1014.91
2018-12-11T03:54:01.908Z,1014.96
2018-12-11T03:54:28.043Z,1014.95
2018-12-11T03:54:54.163Z,1014.96
2018-12-11T03:55:20.299Z,1014.89
2018-12-11T03:55:46.411Z,1014.94
2018-12-11T03:56:12.526Z,1014.96
2018-12-11T03:56:38.626Z,1014.96
2018-12-11T03:57:04.754Z,1014.95
2018-12-11T03:57:30.865Z,1014.97
2018-12-11T03:57:56.975Z,1014.93
2018-12-11T03:58:23.092Z,1014.89
2018-12-11T03:58:49.207Z,1014.88
2018-12-11T03:59:15.349Z,1014.91
2018-12-11T03:59:41.518Z,1014.94
2018-12-11T04:00:07.593Z,1014.89
2018-12-11T04:00:33.698Z,1014.92
2018-12-11T04:00:59.821Z,1014.87
2018-12-11T04:01:25.930Z,1014.87
2018-12-11T04:01:52.042Z,1014.93
2018-12-11T04:02:18.137Z,1014.92
2018-12-11T04:02:44.290Z,1014.9
2018-12-11T04:03:10.429Z,1014.87
2018-12-11T04:03:36.575Z,1014.9
2018-12-11T04:04:02.677Z,1014.86
2018-12-11T04:04:28.786Z,1014.89
2018-12-11T04:04:54.919Z,1014.85
2018-12-11T04:05:21.023Z,1014.88
2018-12-11T04:05:47.131Z,1014.86
2018-12-11T04:06:13.261Z,1014.89
2018-12-11T04:06:39.361Z,1014.86
2018-12-11T04:07:05.482Z,1014.8
2018-12-11T04:07:31.627Z,1014.84
2018-12-11T04:07:57.742Z,1014.85
2018-12-11T04:08:23.865Z,1014.83
2018-12-11T04:08:49.966Z,1014.85
2018-12-11T04:09:16.076Z,1014.86
2018-12-11T04:09:42.192Z,1014.81
2018-12-11T04:10:08.336Z,1014.81
2018-12-11T04:10:34.474Z,1014.83
2018-12-11T04:11:00.613Z,1014.79
2018-12-11T04:11:26.728Z,1014.79
2018-12-11T04:11:52.844Z,1014.79
2018-12-11T04:12:18.953Z,1014.81
2018-12-11T04:12:45.055Z,1014.79
2018-12-11T04:13:11.170Z,1014.81
2018-12-11T04:13:37.303Z,1014.8
2018-12-11T04:14:03.412Z,1014.8
2018-12-11T04:14:29.509Z,1014.79
2018-12-11T04:14:55.660Z,1014.77
2018-12-11T04:15:21.825Z,1014.84
2018-12-11T04:15:47.940Z,1014.81
2018-12-11T04:16:14.064Z,1014.8
2018-12-11T04:16:40.171Z,1014.79
2018-12-11T04:17:06.273Z,1014.77
2018-12-11T04:17:32.385Z,1014.8
2018-12-11T04:17:58.530Z,1014.76
2018-12-11T04:18:24.658Z,1014.77
2018-12-11T04:18:50.826Z,1014.78
2018-12-11T04:19:16.933Z,1014.75
2018-12-11T04:19:43.092Z,1014.8
2018-12-11T04:20:09.671Z,1014.79
2018-12-11T04:20:35.820Z,1014.74
2018-12-11T04:21:01.970Z,1014.75
2018-12-11T04:21:28.130Z,1014.69
2018-12-11T04:21:54.270Z,1014.68
2018-12-11T04:22:20.391Z,1014.67
2018-12-11T04:22:46.512Z,1014.74
2018-12-11T04:23:12.651Z,1014.73
2018-12-11T04:23:38.818Z,1014.77
2018-12-11T04:24:04.918Z,1014.74
2018-12-11T04:24:31.030Z,1014.69
2018-12-11T04:24:57.124Z,1014.7
2018-12-11T04:25:23.285Z,1014.74
2018-12-11T04:25:49.437Z,1014.74
2018-12-11T04:26:15.567Z,1014.8
2018-12-11T04:26:41.687Z,1014.77
2018-12-11T04:27:07.838Z,1014.76
2018-12-11T04:27:34.017Z,1014.8
2018-12-11T04:28:00.136Z,1014.76
2018-12-11T04:28:26.270Z,1014.75
2018-12-11T04:28:52.395Z,1014.79
2018-12-11T04:29:18.551Z,1014.77
2018-12-11T04:29:44.683Z,1014.73
2018-12-11T04:30:10.803Z,1014.78
2018-12-11T04:30:36.945Z,1014.79
2018-12-11T04:31:03.050Z,1014.76
2018-12-11T04:31:29.163Z,1014.8
2018-12-11T04:31:55.272Z,1014.77
2018-12-11T04:32:21.441Z,1014.8
2018-12-11T04:32:47.581Z,1014.84
2018-12-11T04:33:13.690Z,1014.82
2018-12-11T04:33:39.871Z,1014.77
2018-12-11T04:34:06.008Z,1014.8
2018-12-11T04:34:32.105Z,1014.8
2018-12-11T04:34:58.290Z,1014.83
2018-12-11T04:35:24.385Z,1014.85
2018-12-11T04:35:50.528Z,1014.8
2018-12-11T04:36:16.633Z,1014.84
2018-12-11T04:36:42.734Z,1014.81
2018-12-11T04:37:08.842Z,1014.76
2018-12-11T04:37:34.958Z,1014.78
2018-12-11T04:38:01.065Z,1014.76
2018-12-11T04:38:27.169Z,1014.75
2018-12-11T04:38:53.282Z,1014.79
2018-12-11T04:39:19.378Z,1014.78
2018-12-11T04:39:45.550Z,1014.77
2018-12-11T04:40:11.704Z,1014.79
2018-12-11T04:40:37.833Z,1014.84
2018-12-11T04:41:03.975Z,1014.82
2018-12-11T04:41:30.112Z,1014.83
2018-12-11T04:41:56.225Z,1014.86
2018-12-11T04:42:22.316Z,1014.82
2018-12-11T04:42:48.460Z,1014.83
2018-12-11T04:43:14.616Z,1014.81
2018-12-11T04:43:40.752Z,1014.81
2018-12-11T04:44:06.874Z,1014.85
2018-12-11T04:44:33.009Z,1014.84
2018-12-11T04:44:59.131Z,1014.87
2018-12-11T04:45:25.248Z,1014.84
2018-12-11T04:45:51.352Z,1014.85
2018-12-11T04:46:17.473Z,1014.84
2018-12-11T04:46:43.648Z,1014.85
2018-12-11T04:47:09.757Z,1014.88
2018-12-11T04:47:35.860Z,1014.88
2018-12-11T04:48:01.988Z,1014.94
2018-12-11T04:48:28.085Z,1014.93
2018-12-11T04:48:54.185Z,1014.9
2018-12-11T04:49:20.301Z,1014.97
2018-12-11T04:49:46.401Z,1014.91
2018-12-11T04:50:12.509Z,1014.94
2018-12-11T04:50:38.634Z,1014.93
2018-12-11T04:51:04.764Z,1014.93
2018-12-11T04:51:30.865Z,1014.95
2018-12-11T04:51:56.966Z,1014.98
2018-12-11T04:52:23.089Z,1014.9
2018-12-11T04:52:49.209Z,1014.96
2018-12-11T04:53:15.316Z,1015.02
2018-12-11T04:53:41.440Z,1014.93
2018-12-11T04:54:07.540Z,1014.96
2018-12-11T04:54:33.638Z,1014.95
2018-12-11T04:54:59.759Z,1014.93
2018-12-11T04:55:25.872Z,1014.96
2018-12-11T04:55:51.965Z,1014.99
2018-12-11T04:56:18.067Z,1014.96
2018-12-11T04:56:44.210Z,1014.98
2018-12-11T04:57:10.310Z,1014.98
2018-12-11T04:57:36.416Z,1014.96
2018-12-11T04:58:02.541Z,1015.02
2018-12-11T04:58:28.671Z,1015
2018-12-11T04:58:54.791Z,1015
2018-12-11T04:59:20.929Z,1015.04
2018-12-11T04:59:47.040Z,1015.01
2018-12-11T05:00:13.169Z,1014.99
2018-12-11T05:00:39.299Z,1014.97
2018-12-11T05:01:05.412Z,1015
2018-12-11T05:01:31.512Z,1014.95
2018-12-11T05:01:57.620Z,1015
2018-12-11T05:02:23.733Z,1015.02
2018-12-11T05:02:49.837Z,1014.98
2018-12-11T05:03:15.946Z,1014.95
2018-12-11T05:03:42.059Z,1014.99
2018-12-11T05:04:08.179Z,1015.03
2018-12-11T05:04:34.288Z,1014.91
2018-12-11T05:05:00.399Z,1015.01
2018-12-11T05:05:26.523Z,1015
2018-12-11T05:05:52.626Z,1014.95
2018-12-11T05:06:18.749Z,1014.99
2018-12-11T05:06:44.847Z,1014.92
2018-12-11T05:07:10.980Z,1014.88
2018-12-11T05:07:37.145Z,1014.97
2018-12-11T05:08:03.282Z,1014.93
2018-12-11T05:08:29.386Z,1014.96
2018-12-11T05:08:55.499Z,1014.95
2018-12-11T05:09:21.601Z,1014.96
2018-12-11T05:09:47.712Z,1014.9
2018-12-11T05:10:13.820Z,1014.93
2018-12-11T05:10:39.923Z,1014.98
2018-12-11T05:11:06.025Z,1014.95
2018-12-11T05:11:32.142Z,1014.96
2018-12-11T05:11:58.246Z,1015.01
2018-12-11T05:12:24.375Z,1014.94
2018-12-11T05:12:50.500Z,1014.98
2018-12-11T05:13:16.610Z,1014.98
2018-12-11T05:13:42.728Z,1014.97
2018-12-11T05:14:08.832Z,1014.97
2018-12-11T05:14:34.937Z,1014.91
2018-12-11T05:15:01.044Z,1014.97
2018-12-11T05:15:27.163Z,1014.97
2018-12-11T05:15:53.278Z,1014.98
2018-12-11T05:16:19.410Z,1014.96
2018-12-11T05:16:45.508Z,1014.95
2018-12-11T05:17:11.608Z,1014.98